Terminal Aerodrome Forecast
Issued by NWS

Home | Current Version | Previous Version | Text Only | Print | Product List | Glossary Off
Versions: 1 2 3 4 5 6 7 8 9 10 11 12 13

243
FTUS42 KTBW 141720
TAFPIE
TAF
KPIE 141720Z 1418/1518 09007KT P6SM FEW030 FEW300
     FM142200 10007KT P6SM SCT030 SCT300
     FM151300 13010KT P6SM SCT250=

USA.gov is the U.S. government's official web portal to all federal, state and local government web resources and services.